sensor_id;sensor_type;location;lat;lon;timestamp;P1;durP1;ratioP1;P2;durP2;ratioP2
79047;SDS011;68680;50.764;6.120;2023-12-20T00:00:15;46.20;;;19.60;;
79047;SDS011;68680;50.764;6.120;2023-12-20T00:02:41;49.80;;;18.73;;
79047;SDS011;68680;50.764;6.120;2023-12-20T00:05:07;49.22;;;19.20;;
79047;SDS011;68680;50.764;6.120;2023-12-20T00:07:34;43.47;;;16.67;;
79047;SDS011;68680;50.764;6.120;2023-12-20T00:09:59;47.70;;;17.33;;
79047;SDS011;68680;50.764;6.120;2023-12-20T00:12:25;38.60;;;15.63;;
79047;SDS011;68680;50.764;6.120;2023-12-20T00:14:50;26.50;;;11.07;;
79047;SDS011;68680;50.764;6.120;2023-12-20T00:17:16;24.38;;;9.75;;
79047;SDS011;68680;50.764;6.120;2023-12-20T00:19:42;18.98;;;8.13;;
79047;SDS011;68680;50.764;6.120;2023-12-20T00:22:07;18.27;;;8.60;;
79047;SDS011;68680;50.764;6.120;2023-12-20T00:24:34;18.92;;;7.95;;
79047;SDS011;68680;50.764;6.120;2023-12-20T00:27:00;22.80;;;8.25;;
79047;SDS011;68680;50.764;6.120;2023-12-20T00:29:25;26.38;;;9.93;;
79047;SDS011;68680;50.764;6.120;2023-12-20T00:31:51;26.55;;;11.88;;
79047;SDS011;68680;50.764;6.120;2023-12-20T00:34:16;37.13;;;13.57;;
79047;SDS011;68680;50.764;6.120;2023-12-20T00:36:42;35.13;;;14.23;;
79047;SDS011;68680;50.764;6.120;2023-12-20T00:39:08;46.80;;;16.35;;
79047;SDS011;68680;50.764;6.120;2023-12-20T00:41:35;49.50;;;17.77;;
79047;SDS011;68680;50.764;6.120;2023-12-20T00:44:00;52.15;;;19.52;;
79047;SDS011;68680;50.764;6.120;2023-12-20T00:46:26;49.75;;;20.38;;
79047;SDS011;68680;50.764;6.120;2023-12-20T00:48:51;45.97;;;20.63;;
79047;SDS011;68680;50.764;6.120;2023-12-20T00:51:17;46.75;;;21.52;;
79047;SDS011;68680;50.764;6.120;2023-12-20T00:53:43;53.00;;;20.70;;
79047;SDS011;68680;50.764;6.120;2023-12-20T00:56:09;34.85;;;15.23;;
79047;SDS011;68680;50.764;6.120;2023-12-20T00:58:36;27.25;;;11.43;;
79047;SDS011;68680;50.764;6.120;2023-12-20T01:01:02;30.23;;;11.70;;
79047;SDS011;68680;50.764;6.120;2023-12-20T01:03:28;20.30;;;10.18;;
79047;SDS011;68680;50.764;6.120;2023-12-20T01:05:53;21.73;;;8.88;;
79047;SDS011;68680;50.764;6.120;2023-12-20T01:08:19;32.38;;;10.68;;
79047;SDS011;68680;50.764;6.120;2023-12-20T01:10:45;23.05;;;7.43;;
79047;SDS011;68680;50.764;6.120;2023-12-20T01:13:10;23.83;;;7.07;;
79047;SDS011;68680;50.764;6.120;2023-12-20T01:15:37;27.70;;;6.95;;
79047;SDS011;68680;50.764;6.120;2023-12-20T01:18:03;29.08;;;7.53;;
79047;SDS011;68680;50.764;6.120;2023-12-20T01:20:29;22.10;;;5.20;;
79047;SDS011;68680;50.764;6.120;2023-12-20T01:22:54;28.85;;;5.03;;
79047;SDS011;68680;50.764;6.120;2023-12-20T01:25:20;22.45;;;5.72;;
79047;SDS011;68680;50.764;6.120;2023-12-20T01:27:45;17.35;;;5.25;;
79047;SDS011;68680;50.764;6.120;2023-12-20T01:30:11;26.08;;;6.05;;
79047;SDS011;68680;50.764;6.120;2023-12-20T01:32:39;28.55;;;5.97;;
79047;SDS011;68680;50.764;6.120;2023-12-20T01:35:04;21.13;;;6.47;;
79047;SDS011;68680;50.764;6.120;2023-12-20T01:37:30;24.05;;;5.85;;
79047;SDS011;68680;50.764;6.120;2023-12-20T01:39:56;22.80;;;5.72;;
79047;SDS011;68680;50.764;6.120;2023-12-20T01:42:21;22.13;;;6.22;;
79047;SDS011;68680;50.764;6.120;2023-12-20T01:44:47;19.48;;;6.18;;
79047;SDS011;68680;50.764;6.120;2023-12-20T01:47:13;26.60;;;6.32;;
79047;SDS011;68680;50.764;6.120;2023-12-20T01:49:40;21.52;;;5.43;;
79047;SDS011;68680;50.764;6.120;2023-12-20T01:52:05;18.73;;;5.63;;
79047;SDS011;68680;50.764;6.120;2023-12-20T01:54:32;24.98;;;5.88;;
79047;SDS011;68680;50.764;6.120;2023-12-20T01:57:00;20.63;;;5.55;;
79047;SDS011;68680;50.764;6.120;2023-12-20T01:59:26;19.30;;;5.50;;
79047;SDS011;68680;50.764;6.120;2023-12-20T02:01:53;25.90;;;6.30;;
79047;SDS011;68680;50.764;6.120;2023-12-20T02:04:19;17.63;;;5.30;;
79047;SDS011;68680;50.764;6.120;2023-12-20T02:06:46;19.40;;;5.95;;
79047;SDS011;68680;50.764;6.120;2023-12-20T02:09:13;14.32;;;5.85;;
79047;SDS011;68680;50.764;6.120;2023-12-20T02:11:39;21.58;;;6.75;;
79047;SDS011;68680;50.764;6.120;2023-12-20T02:14:05;19.02;;;5.57;;
79047;SDS011;68680;50.764;6.120;2023-12-20T02:16:31;17.33;;;6.07;;
79047;SDS011;68680;50.764;6.120;2023-12-20T02:18:57;23.27;;;6.38;;
79047;SDS011;68680;50.764;6.120;2023-12-20T02:21:25;18.77;;;7.40;;
79047;SDS011;68680;50.764;6.120;2023-12-20T02:23:56;20.77;;;7.85;;
79047;SDS011;68680;50.764;6.120;2023-12-20T02:26:22;18.52;;;8.05;;
79047;SDS011;68680;50.764;6.120;2023-12-20T02:28:48;23.92;;;8.70;;
79047;SDS011;68680;50.764;6.120;2023-12-20T02:31:13;24.42;;;11.30;;
79047;SDS011;68680;50.764;6.120;2023-12-20T02:33:39;23.65;;;11.05;;
79047;SDS011;68680;50.764;6.120;2023-12-20T02:36:06;23.83;;;10.00;;
79047;SDS011;68680;50.764;6.120;2023-12-20T02:38:33;25.52;;;10.48;;
79047;SDS011;68680;50.764;6.120;2023-12-20T02:40:58;23.50;;;10.90;;
79047;SDS011;68680;50.764;6.120;2023-12-20T02:43:24;34.35;;;11.48;;
79047;SDS011;68680;50.764;6.120;2023-12-20T02:45:49;32.22;;;11.15;;
79047;SDS011;68680;50.764;6.120;2023-12-20T02:48:15;19.90;;;9.77;;
79047;SDS011;68680;50.764;6.120;2023-12-20T02:50:41;33.80;;;12.13;;
79047;SDS011;68680;50.764;6.120;2023-12-20T02:53:06;33.00;;;11.27;;
79047;SDS011;68680;50.764;6.120;2023-12-20T02:55:33;21.98;;;9.15;;
79047;SDS011;68680;50.764;6.120;2023-12-20T02:57:59;20.73;;;9.07;;
79047;SDS011;68680;50.764;6.120;2023-12-20T03:00:24;19.50;;;8.75;;
79047;SDS011;68680;50.764;6.120;2023-12-20T03:02:50;24.33;;;8.32;;
79047;SDS011;68680;50.764;6.120;2023-12-20T03:05:15;21.20;;;8.18;;
79047;SDS011;68680;50.764;6.120;2023-12-20T03:07:41;23.42;;;8.88;;
79047;SDS011;68680;50.764;6.120;2023-12-20T03:10:07;33.65;;;9.00;;
79047;SDS011;68680;50.764;6.120;2023-12-20T03:12:34;27.00;;;10.15;;
79047;SDS011;68680;50.764;6.120;2023-12-20T03:15:00;22.50;;;9.25;;
79047;SDS011;68680;50.764;6.120;2023-12-20T03:17:25;32.08;;;11.15;;
79047;SDS011;68680;50.764;6.120;2023-12-20T03:19:51;18.33;;;8.63;;
79047;SDS011;68680;50.764;6.120;2023-12-20T03:22:17;22.73;;;8.93;;
79047;SDS011;68680;50.764;6.120;2023-12-20T03:24:42;21.70;;;8.70;;
79047;SDS011;68680;50.764;6.120;2023-12-20T03:27:08;16.75;;;8.73;;
79047;SDS011;68680;50.764;6.120;2023-12-20T03:29:35;22.90;;;8.88;;
79047;SDS011;68680;50.764;6.120;2023-12-20T03:32:00;25.38;;;9.02;;
79047;SDS011;68680;50.764;6.120;2023-12-20T03:34:26;29.38;;;9.05;;
79047;SDS011;68680;50.764;6.120;2023-12-20T03:36:51;26.02;;;10.15;;
79047;SDS011;68680;50.764;6.120;2023-12-20T03:39:17;26.85;;;8.38;;
79047;SDS011;68680;50.764;6.120;2023-12-20T03:41:43;26.20;;;9.18;;
79047;SDS011;68680;50.764;6.120;2023-12-20T03:44:08;20.98;;;8.80;;
79047;SDS011;68680;50.764;6.120;2023-12-20T03:46:35;23.23;;;8.38;;
79047;SDS011;68680;50.764;6.120;2023-12-20T03:49:01;27.77;;;9.48;;
79047;SDS011;68680;50.764;6.120;2023-12-20T03:51:26;20.30;;;8.70;;
79047;SDS011;68680;50.764;6.120;2023-12-20T03:53:52;19.77;;;7.78;;
79047;SDS011;68680;50.764;6.120;2023-12-20T03:56:18;26.23;;;8.75;;
79047;SDS011;68680;50.764;6.120;2023-12-20T03:58:43;25.58;;;8.10;;
79047;SDS011;68680;50.764;6.120;2023-12-20T04:01:09;22.85;;;9.25;;
79047;SDS011;68680;50.764;6.120;2023-12-20T04:03:36;28.17;;;8.30;;
79047;SDS011;68680;50.764;6.120;2023-12-20T04:06:02;22.27;;;8.23;;
79047;SDS011;68680;50.764;6.120;2023-12-20T04:08:27;22.15;;;7.80;;
79047;SDS011;68680;50.764;6.120;2023-12-20T04:10:53;24.10;;;8.35;;
79047;SDS011;68680;50.764;6.120;2023-12-20T04:13:19;18.23;;;8.40;;
79047;SDS011;68680;50.764;6.120;2023-12-20T04:15:44;20.02;;;8.73;;
79047;SDS011;68680;50.764;6.120;2023-12-20T04:18:10;26.08;;;8.57;;
79047;SDS011;68680;50.764;6.120;2023-12-20T04:20:37;21.55;;;8.52;;
79047;SDS011;68680;50.764;6.120;2023-12-20T04:23:02;25.25;;;8.35;;
79047;SDS011;68680;50.764;6.120;2023-12-20T04:25:28;19.38;;;6.60;;
79047;SDS011;68680;50.764;6.120;2023-12-20T04:27:54;25.25;;;7.78;;
79047;SDS011;68680;50.764;6.120;2023-12-20T04:30:19;23.60;;;6.95;;
79047;SDS011;68680;50.764;6.120;2023-12-20T04:32:45;18.42;;;6.95;;
79047;SDS011;68680;50.764;6.120;2023-12-20T04:35:10;24.42;;;7.22;;
79047;SDS011;68680;50.764;6.120;2023-12-20T04:37:37;26.92;;;6.43;;
79047;SDS011;68680;50.764;6.120;2023-12-20T04:40:03;24.77;;;6.28;;
79047;SDS011;68680;50.764;6.120;2023-12-20T04:42:30;25.00;;;5.82;;
79047;SDS011;68680;50.764;6.120;2023-12-20T04:44:55;25.90;;;7.00;;
79047;SDS011;68680;50.764;6.120;2023-12-20T04:47:21;24.52;;;6.72;;
79047;SDS011;68680;50.764;6.120;2023-12-20T04:49:46;25.85;;;6.90;;
79047;SDS011;68680;50.764;6.120;2023-12-20T04:52:12;24.10;;;7.05;;
79047;SDS011;68680;50.764;6.120;2023-12-20T04:54:39;21.95;;;6.55;;
79047;SDS011;68680;50.764;6.120;2023-12-20T04:57:04;22.77;;;7.15;;
79047;SDS011;68680;50.764;6.120;2023-12-20T04:59:30;28.08;;;7.70;;
79047;SDS011;68680;50.764;6.120;2023-12-20T05:01:56;24.80;;;6.70;;
79047;SDS011;68680;50.764;6.120;2023-12-20T05:04:21;24.80;;;6.75;;
79047;SDS011;68680;50.764;6.120;2023-12-20T05:06:47;22.15;;;7.28;;
79047;SDS011;68680;50.764;6.120;2023-12-20T05:09:12;25.17;;;7.28;;
79047;SDS011;68680;50.764;6.120;2023-12-20T05:11:39;25.95;;;6.70;;
79047;SDS011;68680;50.764;6.120;2023-12-20T05:14:05;23.58;;;6.80;;
79047;SDS011;68680;50.764;6.120;2023-12-20T05:16:30;20.15;;;6.72;;
79047;SDS011;68680;50.764;6.120;2023-12-20T05:18:56;22.40;;;6.82;;
79047;SDS011;68680;50.764;6.120;2023-12-20T05:21:21;19.90;;;6.78;;
79047;SDS011;68680;50.764;6.120;2023-12-20T05:23:47;20.02;;;7.55;;
79047;SDS011;68680;50.764;6.120;2023-12-20T05:26:13;21.60;;;8.25;;
79047;SDS011;68680;50.764;6.120;2023-12-20T05:28:40;27.73;;;7.72;;
79047;SDS011;68680;50.764;6.120;2023-12-20T05:31:05;34.17;;;7.60;;
79047;SDS011;68680;50.764;6.120;2023-12-20T05:33:31;20.77;;;6.85;;
79047;SDS011;68680;50.764;6.120;2023-12-20T05:35:56;30.95;;;8.70;;
79047;SDS011;68680;50.764;6.120;2023-12-20T05:38:22;24.58;;;7.30;;
79047;SDS011;68680;50.764;6.120;2023-12-20T05:40:47;20.92;;;7.32;;
79047;SDS011;68680;50.764;6.120;2023-12-20T05:43:13;22.60;;;8.02;;
79047;SDS011;68680;50.764;6.120;2023-12-20T05:45:40;27.35;;;8.90;;
79047;SDS011;68680;50.764;6.120;2023-12-20T05:48:06;20.58;;;7.50;;
79047;SDS011;68680;50.764;6.120;2023-12-20T05:50:32;24.17;;;8.38;;
79047;SDS011;68680;50.764;6.120;2023-12-20T05:52:57;24.25;;;8.30;;
79047;SDS011;68680;50.764;6.120;2023-12-20T05:55:23;24.13;;;7.80;;
79047;SDS011;68680;50.764;6.120;2023-12-20T05:57:48;24.95;;;7.53;;
79047;SDS011;68680;50.764;6.120;2023-12-20T06:00:14;24.05;;;7.13;;
79047;SDS011;68680;50.764;6.120;2023-12-20T06:02:42;35.65;;;11.52;;
79047;SDS011;68680;50.764;6.120;2023-12-20T06:05:08;22.08;;;7.30;;
79047;SDS011;68680;50.764;6.120;2023-12-20T06:07:33;22.60;;;7.63;;
79047;SDS011;68680;50.764;6.120;2023-12-20T06:09:59;22.30;;;7.50;;
79047;SDS011;68680;50.764;6.120;2023-12-20T06:12:25;18.25;;;7.22;;
79047;SDS011;68680;50.764;6.120;2023-12-20T06:14:50;22.17;;;7.25;;
79047;SDS011;68680;50.764;6.120;2023-12-20T06:17:16;21.10;;;7.70;;
79047;SDS011;68680;50.764;6.120;2023-12-20T06:19:43;28.00;;;7.10;;
79047;SDS011;68680;50.764;6.120;2023-12-20T06:22:08;23.83;;;7.45;;
79047;SDS011;68680;50.764;6.120;2023-12-20T06:24:34;25.98;;;7.50;;
79047;SDS011;68680;50.764;6.120;2023-12-20T06:27:00;20.27;;;7.32;;
79047;SDS011;68680;50.764;6.120;2023-12-20T06:29:25;21.48;;;8.05;;
79047;SDS011;68680;50.764;6.120;2023-12-20T06:31:51;20.25;;;6.28;;
79047;SDS011;68680;50.764;6.120;2023-12-20T06:34:16;25.23;;;8.30;;
79047;SDS011;68680;50.764;6.120;2023-12-20T06:36:43;16.90;;;5.95;;
79047;SDS011;68680;50.764;6.120;2023-12-20T06:39:09;18.50;;;6.38;;
79047;SDS011;68680;50.764;6.120;2023-12-20T06:41:34;20.42;;;6.18;;
79047;SDS011;68680;50.764;6.120;2023-12-20T06:44:00;21.17;;;6.70;;
79047;SDS011;68680;50.764;6.120;2023-12-20T06:46:25;21.08;;;7.15;;
79047;SDS011;68680;50.764;6.120;2023-12-20T06:48:51;23.40;;;7.25;;
79047;SDS011;68680;50.764;6.120;2023-12-20T06:51:17;25.55;;;8.20;;
79047;SDS011;68680;50.764;6.120;2023-12-20T06:53:44;22.67;;;7.78;;
79047;SDS011;68680;50.764;6.120;2023-12-20T06:56:10;31.92;;;9.48;;
79047;SDS011;68680;50.764;6.120;2023-12-20T06:58:36;25.15;;;9.18;;
79047;SDS011;68680;50.764;6.120;2023-12-20T07:01:02;31.88;;;10.48;;
79047;SDS011;68680;50.764;6.120;2023-12-20T07:03:27;26.23;;;9.23;;
79047;SDS011;68680;50.764;6.120;2023-12-20T07:05:53;27.55;;;9.45;;
79047;SDS011;68680;50.764;6.120;2023-12-20T07:08:19;28.13;;;9.25;;
79047;SDS011;68680;50.764;6.120;2023-12-20T07:10:46;24.60;;;8.93;;
79047;SDS011;68680;50.764;6.120;2023-12-20T07:13:11;25.58;;;9.18;;
79047;SDS011;68680;50.764;6.120;2023-12-20T07:15:37;32.22;;;9.05;;
79047;SDS011;68680;50.764;6.120;2023-12-20T07:18:03;31.67;;;8.52;;
79047;SDS011;68680;50.764;6.120;2023-12-20T07:20:29;29.48;;;10.23;;
79047;SDS011;68680;50.764;6.120;2023-12-20T07:22:54;25.30;;;7.63;;
79047;SDS011;68680;50.764;6.120;2023-12-20T07:25:20;21.00;;;8.75;;
79047;SDS011;68680;50.764;6.120;2023-12-20T07:27:47;29.73;;;9.10;;
79047;SDS011;68680;50.764;6.120;2023-12-20T07:30:13;26.83;;;8.05;;
79047;SDS011;68680;50.764;6.120;2023-12-20T07:32:39;31.33;;;10.07;;
79047;SDS011;68680;50.764;6.120;2023-12-20T07:35:04;24.17;;;9.73;;
79047;SDS011;68680;50.764;6.120;2023-12-20T07:37:30;24.40;;;9.55;;
79047;SDS011;68680;50.764;6.120;2023-12-20T07:39:56;27.15;;;9.18;;
79047;SDS011;68680;50.764;6.120;2023-12-20T07:42:21;26.20;;;9.88;;
79047;SDS011;68680;50.764;6.120;2023-12-20T07:44:48;26.15;;;9.07;;
79047;SDS011;68680;50.764;6.120;2023-12-20T07:47:14;34.00;;;10.20;;
79047;SDS011;68680;50.764;6.120;2023-12-20T07:49:40;33.42;;;8.68;;
79047;SDS011;68680;50.764;6.120;2023-12-20T07:52:05;26.02;;;10.05;;
79047;SDS011;68680;50.764;6.120;2023-12-20T07:54:31;24.25;;;9.00;;
79047;SDS011;68680;50.764;6.120;2023-12-20T07:56:56;35.35;;;8.57;;
79047;SDS011;68680;50.764;6.120;2023-12-20T07:59:22;25.10;;;8.65;;
79047;SDS011;68680;50.764;6.120;2023-12-20T08:01:49;29.30;;;9.30;;
79047;SDS011;68680;50.764;6.120;2023-12-20T08:04:15;32.60;;;9.50;;
79047;SDS011;68680;50.764;6.120;2023-12-20T08:06:40;20.65;;;9.45;;
79047;SDS011;68680;50.764;6.120;2023-12-20T08:09:06;18.40;;;9.45;;
79047;SDS011;68680;50.764;6.120;2023-12-20T08:11:31;24.38;;;9.38;;
79047;SDS011;68680;50.764;6.120;2023-12-20T08:13:57;23.70;;;9.95;;
79047;SDS011;68680;50.764;6.120;2023-12-20T08:16:22;26.95;;;8.90;;
79047;SDS011;68680;50.764;6.120;2023-12-20T08:18:50;35.25;;;9.63;;
79047;SDS011;68680;50.764;6.120;2023-12-20T08:21:15;27.10;;;10.25;;
79047;SDS011;68680;50.764;6.120;2023-12-20T08:23:41;25.20;;;9.88;;
79047;SDS011;68680;50.764;6.120;2023-12-20T08:26:07;23.95;;;8.43;;
79047;SDS011;68680;50.764;6.120;2023-12-20T08:28:32;31.88;;;8.27;;
79047;SDS011;68680;50.764;6.120;2023-12-20T08:30:58;53.30;;;15.55;;
79047;SDS011;68680;50.764;6.120;2023-12-20T08:33:24;23.00;;;8.35;;
79047;SDS011;68680;50.764;6.120;2023-12-20T08:35:51;25.85;;;9.48;;
79047;SDS011;68680;50.764;6.120;2023-12-20T08:38:17;41.45;;;15.00;;
79047;SDS011;68680;50.764;6.120;2023-12-20T08:40:42;28.50;;;7.00;;
79047;SDS011;68680;50.764;6.120;2023-12-20T08:43:08;15.82;;;7.03;;
79047;SDS011;68680;50.764;6.120;2023-12-20T08:45:34;24.20;;;7.38;;
79047;SDS011;68680;50.764;6.120;2023-12-20T08:47:59;20.33;;;7.45;;
79047;SDS011;68680;50.764;6.120;2023-12-20T08:50:25;18.33;;;6.45;;
79047;SDS011;68680;50.764;6.120;2023-12-20T08:52:52;30.73;;;10.98;;
79047;SDS011;68680;50.764;6.120;2023-12-20T08:55:18;37.42;;;11.98;;
79047;SDS011;68680;50.764;6.120;2023-12-20T08:57:44;21.30;;;6.30;;
79047;SDS011;68680;50.764;6.120;2023-12-20T09:00:10;36.70;;;10.85;;
79047;SDS011;68680;50.764;6.120;2023-12-20T09:02:37;22.17;;;5.65;;
79047;SDS011;68680;50.764;6.120;2023-12-20T09:05:03;23.25;;;6.55;;
79047;SDS011;68680;50.764;6.120;2023-12-20T09:07:29;24.98;;;5.55;;
79047;SDS011;68680;50.764;6.120;2023-12-20T09:09:56;17.55;;;5.30;;
79047;SDS011;68680;50.764;6.120;2023-12-20T09:12:22;15.63;;;5.25;;
79047;SDS011;68680;50.764;6.120;2023-12-20T09:14:48;22.85;;;6.15;;
79047;SDS011;68680;50.764;6.120;2023-12-20T09:17:14;25.05;;;5.88;;
79047;SDS011;68680;50.764;6.120;2023-12-20T09:19:40;20.08;;;5.80;;
79047;SDS011;68680;50.764;6.120;2023-12-20T09:22:05;20.10;;;5.95;;
79047;SDS011;68680;50.764;6.120;2023-12-20T09:24:31;15.38;;;5.13;;
79047;SDS011;68680;50.764;6.120;2023-12-20T09:26:58;23.25;;;5.13;;
79047;SDS011;68680;50.764;6.120;2023-12-20T09:29:23;24.92;;;5.68;;
79047;SDS011;68680;50.764;6.120;2023-12-20T09:31:49;23.25;;;5.88;;
79047;SDS011;68680;50.764;6.120;2023-12-20T09:34:15;25.15;;;5.10;;
79047;SDS011;68680;50.764;6.120;2023-12-20T09:36:41;24.35;;;6.30;;
79047;SDS011;68680;50.764;6.120;2023-12-20T09:39:06;19.50;;;5.90;;
79047;SDS011;68680;50.764;6.120;2023-12-20T09:41:33;20.77;;;5.68;;
79047;SDS011;68680;50.764;6.120;2023-12-20T09:44:04;14.50;;;5.57;;
79047;SDS011;68680;50.764;6.120;2023-12-20T09:46:30;23.77;;;5.07;;
79047;SDS011;68680;50.764;6.120;2023-12-20T09:48:59;17.92;;;5.13;;
79047;SDS011;68680;50.764;6.120;2023-12-20T09:51:25;20.52;;;5.95;;
79047;SDS011;68680;50.764;6.120;2023-12-20T09:53:52;21.15;;;6.18;;
79047;SDS011;68680;50.764;6.120;2023-12-20T09:56:19;16.52;;;5.90;;
79047;SDS011;68680;50.764;6.120;2023-12-20T09:58:46;20.20;;;5.70;;
79047;SDS011;68680;50.764;6.120;2023-12-20T10:01:13;15.05;;;6.25;;
79047;SDS011;68680;50.764;6.120;2023-12-20T10:03:39;21.20;;;6.60;;
79047;SDS011;68680;50.764;6.120;2023-12-20T10:06:06;14.68;;;5.30;;
79047;SDS011;68680;50.764;6.120;2023-12-20T10:08:32;12.95;;;4.72;;
79047;SDS011;68680;50.764;6.120;2023-12-20T10:10:58;19.95;;;6.03;;
79047;SDS011;68680;50.764;6.120;2023-12-20T10:13:23;13.45;;;4.15;;
79047;SDS011;68680;50.764;6.120;2023-12-20T10:15:49;13.80;;;4.80;;
79047;SDS011;68680;50.764;6.120;2023-12-20T10:18:16;15.73;;;5.15;;
79047;SDS011;68680;50.764;6.120;2023-12-20T10:20:42;16.75;;;4.90;;
79047;SDS011;68680;50.764;6.120;2023-12-20T10:23:07;16.33;;;5.07;;
79047;SDS011;68680;50.764;6.120;2023-12-20T10:25:33;11.75;;;4.80;;
79047;SDS011;68680;50.764;6.120;2023-12-20T10:28:08;19.42;;;5.55;;
79047;SDS011;68680;50.764;6.120;2023-12-20T10:30:35;12.95;;;4.90;;
79047;SDS011;68680;50.764;6.120;2023-12-20T10:33:01;17.52;;;5.13;;
79047;SDS011;68680;50.764;6.120;2023-12-20T10:35:28;11.90;;;4.10;;
79047;SDS011;68680;50.764;6.120;2023-12-20T10:37:55;15.70;;;4.28;;
79047;SDS011;68680;50.764;6.120;2023-12-20T10:40:21;17.25;;;5.18;;
79047;SDS011;68680;50.764;6.120;2023-12-20T10:42:47;13.05;;;4.88;;
79047;SDS011;68680;50.764;6.120;2023-12-20T10:45:13;18.00;;;4.78;;
79047;SDS011;68680;50.764;6.120;2023-12-20T10:47:38;19.27;;;5.57;;
79047;SDS011;68680;50.764;6.120;2023-12-20T10:50:06;19.05;;;5.90;;
79047;SDS011;68680;50.764;6.120;2023-12-20T10:52:34;12.95;;;5.15;;
79047;SDS011;68680;50.764;6.120;2023-12-20T10:55:01;16.25;;;5.30;;
79047;SDS011;68680;50.764;6.120;2023-12-20T10:57:26;20.25;;;4.63;;
79047;SDS011;68680;50.764;6.120;2023-12-20T10:59:52;17.67;;;4.70;;
79047;SDS011;68680;50.764;6.120;2023-12-20T11:02:19;17.02;;;4.53;;
79047;SDS011;68680;50.764;6.120;2023-12-20T11:04:47;12.68;;;4.85;;
79047;SDS011;68680;50.764;6.120;2023-12-20T11:07:19;15.50;;;4.25;;
79047;SDS011;68680;50.764;6.120;2023-12-20T11:09:54;15.98;;;4.85;;
79047;SDS011;68680;50.764;6.120;2023-12-20T11:12:25;19.50;;;4.95;;
79047;SDS011;68680;50.764;6.120;2023-12-20T11:14:59;15.35;;;5.03;;
79047;SDS011;68680;50.764;6.120;2023-12-20T11:17:26;16.55;;;4.75;;
79047;SDS011;68680;50.764;6.120;2023-12-20T11:20:05;18.58;;;5.30;;
79047;SDS011;68680;50.764;6.120;2023-12-20T11:22:32;12.70;;;5.17;;
79047;SDS011;68680;50.764;6.120;2023-12-20T11:25:02;13.75;;;4.88;;
79047;SDS011;68680;50.764;6.120;2023-12-20T11:27:29;23.27;;;5.28;;
79047;SDS011;68680;50.764;6.120;2023-12-20T11:29:56;13.90;;;4.53;;
79047;SDS011;68680;50.764;6.120;2023-12-20T11:32:28;13.35;;;5.68;;
79047;SDS011;68680;50.764;6.120;2023-12-20T11:34:55;15.48;;;5.00;;
79047;SDS011;68680;50.764;6.120;2023-12-20T11:37:21;17.08;;;4.57;;
79047;SDS011;68680;50.764;6.120;2023-12-20T11:39:55;18.27;;;5.10;;
79047;SDS011;68680;50.764;6.120;2023-12-20T11:42:22;19.92;;;5.18;;
79047;SDS011;68680;50.764;6.120;2023-12-20T11:44:48;17.30;;;4.88;;
79047;SDS011;68680;50.764;6.120;2023-12-20T11:47:15;19.08;;;7.07;;
79047;SDS011;68680;50.764;6.120;2023-12-20T11:49:40;13.35;;;4.57;;
79047;SDS011;68680;50.764;6.120;2023-12-20T11:52:06;14.90;;;5.78;;
79047;SDS011;68680;50.764;6.120;2023-12-20T11:54:32;14.10;;;4.63;;
79047;SDS011;68680;50.764;6.120;2023-12-20T11:56:57;23.17;;;6.00;;
79047;SDS011;68680;50.764;6.120;2023-12-20T11:59:24;18.33;;;4.72;;
79047;SDS011;68680;50.764;6.120;2023-12-20T12:01:50;16.95;;;4.35;;
79047;SDS011;68680;50.764;6.120;2023-12-20T12:04:16;15.63;;;4.95;;
79047;SDS011;68680;50.764;6.120;2023-12-20T12:06:41;13.90;;;4.82;;
79047;SDS011;68680;50.764;6.120;2023-12-20T12:09:07;14.13;;;4.95;;
79047;SDS011;68680;50.764;6.120;2023-12-20T12:11:33;15.25;;;5.55;;
79047;SDS011;68680;50.764;6.120;2023-12-20T12:13:58;20.88;;;4.72;;
79047;SDS011;68680;50.764;6.120;2023-12-20T12:16:25;12.57;;;4.20;;
79047;SDS011;68680;50.764;6.120;2023-12-20T12:19:00;17.02;;;5.35;;
79047;SDS011;68680;50.764;6.120;2023-12-20T12:21:26;14.75;;;5.65;;
79047;SDS011;68680;50.764;6.120;2023-12-20T12:23:51;20.00;;;5.38;;
79047;SDS011;68680;50.764;6.120;2023-12-20T12:26:17;16.85;;;4.78;;
79047;SDS011;68680;50.764;6.120;2023-12-20T12:28:43;23.45;;;4.78;;
79047;SDS011;68680;50.764;6.120;2023-12-20T12:31:09;12.73;;;4.30;;
79047;SDS011;68680;50.764;6.120;2023-12-20T12:33:40;18.83;;;3.47;;
79047;SDS011;68680;50.764;6.120;2023-12-20T12:36:06;17.17;;;4.30;;
79047;SDS011;68680;50.764;6.120;2023-12-20T12:38:32;10.63;;;3.53;;
79047;SDS011;68680;50.764;6.120;2023-12-20T12:40:58;19.30;;;3.88;;
79047;SDS011;68680;50.764;6.120;2023-12-20T12:43:25;19.45;;;3.80;;
79047;SDS011;68680;50.764;6.120;2023-12-20T12:45:51;16.08;;;3.50;;
79047;SDS011;68680;50.764;6.120;2023-12-20T12:48:17;18.20;;;3.63;;
79047;SDS011;68680;50.764;6.120;2023-12-20T12:50:44;22.33;;;4.93;;
79047;SDS011;68680;50.764;6.120;2023-12-20T12:53:10;14.23;;;4.80;;
79047;SDS011;68680;50.764;6.120;2023-12-20T12:55:36;10.82;;;3.40;;
79047;SDS011;68680;50.764;6.120;2023-12-20T12:58:01;18.70;;;4.53;;
79047;SDS011;68680;50.764;6.120;2023-12-20T13:00:27;18.58;;;3.75;;
79047;SDS011;68680;50.764;6.120;2023-12-20T13:02:53;15.77;;;4.00;;
79047;SDS011;68680;50.764;6.120;2023-12-20T13:05:18;18.40;;;4.50;;
79047;SDS011;68680;50.764;6.120;2023-12-20T13:07:46;17.48;;;4.03;;
79047;SDS011;68680;50.764;6.120;2023-12-20T13:10:11;11.93;;;4.70;;
79047;SDS011;68680;50.764;6.120;2023-12-20T13:12:37;13.80;;;4.32;;
79047;SDS011;68680;50.764;6.120;2023-12-20T13:15:03;19.42;;;5.18;;
79047;SDS011;68680;50.764;6.120;2023-12-20T13:17:29;19.10;;;4.82;;
79047;SDS011;68680;50.764;6.120;2023-12-20T13:19:54;17.33;;;4.78;;
79047;SDS011;68680;50.764;6.120;2023-12-20T13:22:20;12.18;;;4.40;;
79047;SDS011;68680;50.764;6.120;2023-12-20T13:24:47;17.60;;;4.80;;
79047;SDS011;68680;50.764;6.120;2023-12-20T13:27:13;10.73;;;5.05;;
79047;SDS011;68680;50.764;6.120;2023-12-20T13:29:38;14.45;;;5.35;;
79047;SDS011;68680;50.764;6.120;2023-12-20T13:32:04;15.23;;;5.88;;
79047;SDS011;68680;50.764;6.120;2023-12-20T13:34:30;21.95;;;6.07;;
79047;SDS011;68680;50.764;6.120;2023-12-20T13:36:56;18.52;;;5.45;;
79047;SDS011;68680;50.764;6.120;2023-12-20T13:39:22;16.65;;;5.60;;
79047;SDS011;68680;50.764;6.120;2023-12-20T13:41:49;21.88;;;6.13;;
79047;SDS011;68680;50.764;6.120;2023-12-20T13:44:15;17.60;;;6.13;;
79047;SDS011;68680;50.764;6.120;2023-12-20T13:46:40;17.38;;;6.15;;
79047;SDS011;68680;50.764;6.120;2023-12-20T13:49:06;17.40;;;6.32;;
79047;SDS011;68680;50.764;6.120;2023-12-20T13:51:31;22.27;;;5.85;;
79047;SDS011;68680;50.764;6.120;2023-12-20T13:53:57;16.35;;;6.53;;
79047;SDS011;68680;50.764;6.120;2023-12-20T13:56:23;22.65;;;6.72;;
79047;SDS011;68680;50.764;6.120;2023-12-20T13:58:50;17.73;;;6.68;;
79047;SDS011;68680;50.764;6.120;2023-12-20T14:01:15;17.95;;;7.03;;
79047;SDS011;68680;50.764;6.120;2023-12-20T14:03:41;22.40;;;7.38;;
79047;SDS011;68680;50.764;6.120;2023-12-20T14:06:07;14.13;;;7.35;;
79047;SDS011;68680;50.764;6.120;2023-12-20T14:08:33;24.15;;;7.35;;
79047;SDS011;68680;50.764;6.120;2023-12-20T14:10:58;23.05;;;6.50;;
79047;SDS011;68680;50.764;6.120;2023-12-20T14:13:24;20.25;;;7.63;;
79047;SDS011;68680;50.764;6.120;2023-12-20T14:15:51;17.67;;;7.40;;
79047;SDS011;68680;50.764;6.120;2023-12-20T14:18:17;22.63;;;7.38;;
79047;SDS011;68680;50.764;6.120;2023-12-20T14:20:42;20.77;;;7.07;;
79047;SDS011;68680;50.764;6.120;2023-12-20T14:23:08;23.85;;;7.40;;
79047;SDS011;68680;50.764;6.120;2023-12-20T14:25:34;21.67;;;6.95;;